createdAt,value
2022-09-17T00:01:05.250Z,0.70
2022-09-17T00:03:32.341Z,0.68
2022-09-17T00:06:04.628Z,0.50
2022-09-17T00:08:32.061Z,0.60
2022-09-17T00:10:58.797Z,0.85
2022-09-17T00:13:25.312Z,0.65
2022-09-17T00:15:52.512Z,0.60
2022-09-17T00:18:19.104Z,0.60
2022-09-17T00:20:47.351Z,0.70
2022-09-17T00:23:14.861Z,0.30
2022-09-17T00:25:43.435Z,0.60
2022-09-17T00:28:10.324Z,0.65
2022-09-17T00:30:40.690Z,0.60
2022-09-17T00:33:07.223Z,0.80
2022-09-17T00:35:33.791Z,0.70
2022-09-17T00:38:00.703Z,0.82
2022-09-17T00:40:27.267Z,0.60
2022-09-17T00:42:54.093Z,0.60
2022-09-17T00:45:20.860Z,0.60
2022-09-17T00:47:59.269Z,0.52
2022-09-17T00:50:28.697Z,0.60
2022-09-17T00:53:22.559Z,0.65
2022-09-17T00:55:57.853Z,0.60
2022-09-17T00:58:26.819Z,0.90
2022-09-17T01:00:53.436Z,0.80
2022-09-17T01:03:19.946Z,0.80
2022-09-17T01:05:50.302Z,0.70
2022-09-17T01:08:34.430Z,0.60
2022-09-17T01:11:00.860Z,0.75
2022-09-17T01:14:05.123Z,0.73
2022-09-17T01:16:48.271Z,0.73
2022-09-17T01:19:40.438Z,1.23
2022-09-17T01:22:11.347Z,0.97
2022-09-17T01:25:25.000Z,0.95
2022-09-17T01:28:21.200Z,0.90
2022-09-17T01:30:59.394Z,0.98
2022-09-17T01:33:44.734Z,0.90
2022-09-17T01:36:30.100Z,0.90
2022-09-17T01:39:03.112Z,0.90
2022-09-17T01:41:37.932Z,1.08
2022-09-17T01:44:14.201Z,1.20
2022-09-17T01:46:46.666Z,0.90
2022-09-17T01:49:16.522Z,0.80
2022-09-17T01:51:47.524Z,1.20
2022-09-17T01:54:42.989Z,1.10
2022-09-17T01:57:26.240Z,0.70
2022-09-17T02:00:25.239Z,0.90
2022-09-17T02:03:06.935Z,0.80
2022-09-17T02:05:40.090Z,0.90
2022-09-17T02:08:14.369Z,0.90
2022-09-17T02:10:47.953Z,0.93
2022-09-17T02:13:24.259Z,1.00
2022-09-17T02:16:13.943Z,0.70
2022-09-17T02:18:54.842Z,0.80
2022-09-17T02:21:39.496Z,0.70
2022-09-17T02:24:18.126Z,0.77
2022-09-17T02:27:03.092Z,0.73
2022-09-17T02:29:37.740Z,1.10
2022-09-17T02:32:05.026Z,0.73
2022-09-17T02:34:32.404Z,1.20
2022-09-17T02:36:59.516Z,0.85
2022-09-17T02:39:26.747Z,0.90
2022-09-17T02:41:57.932Z,1.00
2022-09-17T02:44:45.977Z,0.75
2022-09-17T02:47:33.476Z,1.10
2022-09-17T02:50:02.712Z,0.88
2022-09-17T02:53:05.467Z,0.85
2022-09-17T02:55:59.634Z,1.07
2022-09-17T02:58:32.629Z,0.93
2022-09-17T03:01:04.978Z,1.02
2022-09-17T03:03:39.469Z,1.10
2022-09-17T03:06:06.414Z,0.73
2022-09-17T03:08:37.169Z,1.40
2022-09-17T03:11:05.526Z,1.00
2022-09-17T03:13:32.310Z,0.80
2022-09-17T03:15:58.785Z,0.85
2022-09-17T03:18:25.329Z,0.90
2022-09-17T03:20:51.802Z,0.97
2022-09-17T03:23:18.232Z,0.60
2022-09-17T03:25:46.468Z,0.88
2022-09-17T03:28:12.933Z,0.90
2022-09-17T03:30:39.359Z,0.75
2022-09-17T03:33:05.890Z,0.97
2022-09-17T03:35:32.387Z,0.80
2022-09-17T03:37:58.879Z,1.15
2022-09-17T03:40:25.398Z,1.10
2022-09-17T03:42:52.207Z,1.08
2022-09-17T03:45:18.668Z,0.73
2022-09-17T03:47:45.099Z,0.77
2022-09-17T03:50:11.641Z,1.15
2022-09-17T03:52:38.180Z,1.20
2022-09-17T03:55:05.048Z,1.27
2022-09-17T03:57:31.513Z,0.77
2022-09-17T03:59:57.966Z,0.55
2022-09-17T04:02:24.615Z,1.30
2022-09-17T04:04:51.646Z,1.10
2022-09-17T04:07:18.125Z,0.80
2022-09-17T04:09:44.539Z,1.10
2022-09-17T04:12:11.008Z,0.85
2022-09-17T04:14:37.571Z,1.63
2022-09-17T04:17:04.081Z,0.82
2022-09-17T04:19:30.513Z,1.00
2022-09-17T04:21:56.999Z,1.30
2022-09-17T04:24:23.449Z,1.33
2022-09-17T04:26:49.934Z,0.93
2022-09-17T04:29:16.392Z,0.70
2022-09-17T04:31:43.043Z,0.95
2022-09-17T04:34:09.537Z,1.10
2022-09-17T04:36:35.974Z,0.68
2022-09-17T04:39:02.458Z,0.95
2022-09-17T04:41:28.938Z,0.63
2022-09-17T04:43:55.396Z,0.80
2022-09-17T04:46:21.877Z,0.70
2022-09-17T04:48:48.358Z,0.82
2022-09-17T04:51:14.855Z,0.63
2022-09-17T04:53:41.327Z,0.77
2022-09-17T04:56:07.783Z,0.85
2022-09-17T04:58:34.442Z,0.73
2022-09-17T05:01:00.971Z,0.70
2022-09-17T05:03:27.476Z,0.80
2022-09-17T05:05:53.921Z,0.63
2022-09-17T05:08:22.841Z,0.65
2022-09-17T05:10:52.197Z,0.70
2022-09-17T05:13:19.025Z,0.60
2022-09-17T05:15:45.720Z,0.75
2022-09-17T05:18:12.233Z,1.00
2022-09-17T05:20:38.820Z,0.70
2022-09-17T05:23:05.433Z,0.70
2022-09-17T05:25:32.440Z,0.77
2022-09-17T05:28:01.200Z,0.80
2022-09-17T05:30:27.679Z,0.55
2022-09-17T05:33:02.075Z,0.57
2022-09-17T05:35:29.658Z,0.60
2022-09-17T05:38:05.215Z,0.85
2022-09-17T05:40:35.554Z,0.90
2022-09-17T05:43:04.286Z,0.70
2022-09-17T05:45:32.378Z,0.60
2022-09-17T05:48:00.580Z,0.60
2022-09-17T05:50:28.378Z,0.88
2022-09-17T05:52:55.615Z,0.55
2022-09-17T05:55:23.778Z,0.55
2022-09-17T05:57:50.760Z,1.20
2022-09-17T06:00:17.803Z,0.63
2022-09-17T06:02:44.637Z,0.80
2022-09-17T06:05:11.338Z,0.63
2022-09-17T06:07:39.034Z,0.60
2022-09-17T06:10:07.008Z,0.55
2022-09-17T06:12:35.515Z,0.90
2022-09-17T06:15:04.034Z,0.60
2022-09-17T06:17:35.152Z,0.60
2022-09-17T06:20:03.143Z,0.70
2022-09-17T06:22:29.622Z,0.57
2022-09-17T06:24:56.111Z,0.50
2022-09-17T06:27:22.647Z,0.68
2022-09-17T06:29:49.137Z,0.70
2022-09-17T06:32:17.133Z,0.47
2022-09-17T06:34:43.926Z,0.85
2022-09-17T06:37:10.381Z,0.53
2022-09-17T06:39:36.865Z,0.70
2022-09-17T06:42:03.446Z,0.77
2022-09-17T06:44:29.929Z,0.68
2022-09-17T06:46:56.681Z,0.70
2022-09-17T06:49:24.218Z,1.27
2022-09-17T06:51:50.793Z,0.90
2022-09-17T06:54:17.372Z,0.80
2022-09-17T06:56:46.720Z,1.00
2022-09-17T06:59:14.008Z,0.77
2022-09-17T07:01:40.556Z,0.57
2022-09-17T07:04:07.072Z,0.57
2022-09-17T07:06:33.600Z,1.00
2022-09-17T07:09:00.201Z,1.05
2022-09-17T07:11:26.801Z,0.60
2022-09-17T07:13:53.266Z,0.63
2022-09-17T07:16:19.887Z,0.65
2022-09-17T07:18:46.411Z,0.70
2022-09-17T07:21:12.876Z,0.43
2022-09-17T07:23:39.442Z,0.68
2022-09-17T07:26:12.263Z,0.67
2022-09-17T07:28:40.218Z,0.85
2022-09-17T07:31:09.371Z,0.60
2022-09-17T07:33:38.997Z,0.60
2022-09-17T07:36:08.070Z,0.85
2022-09-17T07:38:35.112Z,0.83
2022-09-17T07:41:07.830Z,0.60
2022-09-17T07:43:35.403Z,0.98
2022-09-17T07:46:04.707Z,0.50
2022-09-17T07:48:32.265Z,0.70
2022-09-17T07:50:58.849Z,0.67
2022-09-17T07:53:26.114Z,0.85
2022-09-17T07:55:59.460Z,0.68
2022-09-17T07:58:34.176Z,0.60
2022-09-17T08:01:05.662Z,0.50
2022-09-17T08:03:32.205Z,0.53
2022-09-17T08:06:06.436Z,0.93
2022-09-17T08:08:33.879Z,0.80
2022-09-17T08:11:04.843Z,0.52
2022-09-17T08:13:31.449Z,0.73
2022-09-17T08:16:00.123Z,0.60
2022-09-17T08:18:27.488Z,0.80
2022-09-17T08:21:00.941Z,0.68
2022-09-17T08:23:28.826Z,0.70
2022-09-17T08:26:00.514Z,0.68
2022-09-17T08:28:29.755Z,0.83
2022-09-17T08:31:05.002Z,0.80
2022-09-17T08:33:36.873Z,1.30
2022-09-17T08:36:04.756Z,0.47
2022-09-17T08:38:37.923Z,0.70
2022-09-17T08:41:10.937Z,0.67
2022-09-17T08:43:52.364Z,0.60
2022-09-17T08:46:19.147Z,0.90
2022-09-17T08:48:57.076Z,0.75
2022-09-17T08:51:42.844Z,0.80
2022-09-17T08:54:30.560Z,0.87
2022-09-17T08:57:23.460Z,0.82
2022-09-17T09:00:03.064Z,1.05
2022-09-17T09:02:39.608Z,0.90
2022-09-17T09:05:17.555Z,0.90
2022-09-17T09:07:55.130Z,0.90
2022-09-17T09:10:27.643Z,0.88
2022-09-17T09:12:58.838Z,0.80
2022-09-17T09:15:45.760Z,0.98
2022-09-17T09:18:24.972Z,0.85
2022-09-17T09:21:08.829Z,0.80
2022-09-17T09:24:15.156Z,0.90
2022-09-17T09:26:48.081Z,0.63
2022-09-17T09:29:40.637Z,0.60
2022-09-17T09:32:31.603Z,1.50
2022-09-17T09:35:02.517Z,1.00
2022-09-17T09:37:34.764Z,1.00
2022-09-17T09:40:33.791Z,0.90
2022-09-17T09:43:09.070Z,1.00
2022-09-17T09:45:46.173Z,0.82
2022-09-17T09:48:28.842Z,0.80
2022-09-17T09:51:07.859Z,0.75
2022-09-17T09:53:53.468Z,0.80
2022-09-17T09:56:35.273Z,0.60
2022-09-17T09:59:01.752Z,0.70
2022-09-17T10:01:30.176Z,0.70
2022-09-17T10:03:58.817Z,1.10
2022-09-17T10:06:29.370Z,1.20
2022-09-17T10:08:55.935Z,0.63
2022-09-17T10:11:25.391Z,0.60
2022-09-17T10:13:52.026Z,0.60
2022-09-17T10:16:25.346Z,0.70
2022-09-17T10:19:30.930Z,0.70
2022-09-17T10:21:57.581Z,0.60
2022-09-17T10:24:27.624Z,0.60
2022-09-17T10:27:07.555Z,0.97
2022-09-17T10:29:34.794Z,0.70
2022-09-17T10:32:02.710Z,0.90
2022-09-17T10:34:31.435Z,0.70
2022-09-17T10:36:58.598Z,0.90
2022-09-17T10:39:44.295Z,0.70
2022-09-17T10:42:14.748Z,0.43
2022-09-17T10:44:56.012Z,1.13
2022-09-17T10:47:29.878Z,0.80
2022-09-17T10:50:02.588Z,0.80
2022-09-17T10:52:38.220Z,0.80
2022-09-17T10:55:10.453Z,0.60
2022-09-17T10:57:56.082Z,0.75
2022-09-17T11:00:23.736Z,0.70
2022-09-17T11:03:08.447Z,0.70
2022-09-17T11:05:53.791Z,0.60
2022-09-17T11:08:38.895Z,0.55
2022-09-17T11:11:21.609Z,0.50
2022-09-17T11:14:06.248Z,0.60
2022-09-17T11:17:18.095Z,0.50
2022-09-17T11:19:47.400Z,0.50
2022-09-17T11:22:51.278Z,0.70
2022-09-17T11:25:44.965Z,0.60
2022-09-17T11:28:30.252Z,0.73
2022-09-17T11:31:04.695Z,0.50
2022-09-17T11:33:48.657Z,0.80
2022-09-17T11:36:21.623Z,0.70
2022-09-17T11:38:50.788Z,0.70
2022-09-17T11:41:35.950Z,0.52
2022-09-17T11:44:10.882Z,0.60
2022-09-17T11:47:05.591Z,0.60
2022-09-17T11:49:48.798Z,0.57
2022-09-17T11:52:24.197Z,0.38
2022-09-17T11:55:16.340Z,0.40
2022-09-17T11:57:44.491Z,0.60
2022-09-17T12:00:19.997Z,0.83
2022-09-17T12:03:10.635Z,0.82
2022-09-17T12:05:46.696Z,1.02
2022-09-17T12:08:32.214Z,1.02
2022-09-17T12:11:11.894Z,1.70
2022-09-17T12:13:46.866Z,1.50
2022-09-17T12:16:43.824Z,0.98
2022-09-17T12:19:39.738Z,0.70
2022-09-17T12:22:15.698Z,0.65
2022-09-17T12:24:43.183Z,0.80
2022-09-17T12:27:20.319Z,0.43
2022-09-17T12:30:04.846Z,0.43
2022-09-17T12:33:08.409Z,0.63
2022-09-17T12:36:03.639Z,0.40
2022-09-17T12:38:45.965Z,0.45
2022-09-17T12:41:21.696Z,0.50
2022-09-17T12:44:00.244Z,0.40
2022-09-17T12:46:29.861Z,0.40
2022-09-17T12:49:30.512Z,0.50
2022-09-17T12:52:00.713Z,0.98
2022-09-17T12:54:43.041Z,0.47
2022-09-17T12:57:17.682Z,0.60
2022-09-17T12:59:58.684Z,0.40
2022-09-17T13:02:32.403Z,0.40
2022-09-17T13:05:32.797Z,0.30
2022-09-17T13:08:30.273Z,0.40
2022-09-17T13:11:18.441Z,0.40
2022-09-17T13:14:01.557Z,0.20
2022-09-17T13:16:36.998Z,0.35
2022-09-17T13:19:20.808Z,0.30
2022-09-17T13:22:00.366Z,0.43
2022-09-17T13:24:31.077Z,0.30
2022-09-17T13:27:02.059Z,0.75
2022-09-17T13:29:43.558Z,0.28
2022-09-17T13:32:30.197Z,0.50
2022-09-17T13:34:56.699Z,0.20
2022-09-17T13:37:24.426Z,0.40
2022-09-17T13:39:51.685Z,0.30
2022-09-17T13:42:42.736Z,0.30
2022-09-17T13:45:13.489Z,0.50
2022-09-17T13:47:48.888Z,0.40
2022-09-17T13:50:28.609Z,0.40
2022-09-17T13:52:58.113Z,0.60
2022-09-17T13:55:44.153Z,0.60
2022-09-17T13:58:22.252Z,0.50
2022-09-17T14:00:54.640Z,0.50
2022-09-17T14:03:44.391Z,0.40
2022-09-17T14:06:11.228Z,0.55
2022-09-17T14:08:43.594Z,0.50
2022-09-17T14:11:22.259Z,0.40
2022-09-17T14:13:55.406Z,0.50
2022-09-17T14:16:37.390Z,0.40
2022-09-17T14:19:16.460Z,0.47
2022-09-17T14:21:46.358Z,0.70
2022-09-17T14:24:44.938Z,0.43
2022-09-17T14:27:24.569Z,0.50
2022-09-17T14:30:06.957Z,1.95
2022-09-17T14:32:42.795Z,0.43
2022-09-17T14:35:29.494Z,0.40
2022-09-17T14:38:00.195Z,0.40
2022-09-17T14:40:27.866Z,0.40
2022-09-17T14:42:57.787Z,0.60
2022-09-17T14:45:28.542Z,0.57
2022-09-17T14:48:26.161Z,0.55
2022-09-17T14:50:52.648Z,0.35
2022-09-17T14:53:21.015Z,0.70
2022-09-17T14:55:50.196Z,0.40
2022-09-17T14:58:30.429Z,0.40
2022-09-17T15:00:57.377Z,0.60
2022-09-17T15:03:24.789Z,0.75
2022-09-17T15:05:51.520Z,0.70
2022-09-17T15:08:25.898Z,0.50
2022-09-17T15:10:56.312Z,0.90
2022-09-17T15:13:31.482Z,0.82
2022-09-17T15:16:19.491Z,0.75
2022-09-17T15:18:55.754Z,0.80
2022-09-17T15:21:40.881Z,0.77
2022-09-17T15:24:47.256Z,0.90
2022-09-17T15:27:22.176Z,0.60
2022-09-17T15:29:54.023Z,0.38
2022-09-17T15:32:21.009Z,0.90
2022-09-17T15:35:13.262Z,0.75
2022-09-17T15:38:00.376Z,0.70
2022-09-17T15:40:39.765Z,0.93
2022-09-17T15:43:15.451Z,0.40
2022-09-17T15:46:02.938Z,0.70
2022-09-17T15:48:38.065Z,0.80
2022-09-17T15:51:07.099Z,0.60
2022-09-17T15:53:35.236Z,0.65
2022-09-17T15:56:16.680Z,0.75
2022-09-17T15:58:45.846Z,0.70
2022-09-17T16:01:18.761Z,0.65
2022-09-17T16:03:45.356Z,0.68
2022-09-17T16:06:20.922Z,0.60
2022-09-17T16:08:55.453Z,0.70
2022-09-17T16:11:24.444Z,1.03
2022-09-17T16:13:53.473Z,0.57
2022-09-17T16:16:38.608Z,1.00
2022-09-17T16:19:06.525Z,1.00
2022-09-17T16:21:32.991Z,0.70
2022-09-17T16:24:00.695Z,0.90
2022-09-17T16:26:30.685Z,1.00
2022-09-17T16:29:15.213Z,1.30
2022-09-17T16:31:41.915Z,0.85
2022-09-17T16:34:08.482Z,1.30
2022-09-17T16:36:34.979Z,1.07
2022-09-17T16:39:01.715Z,1.45
2022-09-17T16:41:28.240Z,1.27
2022-09-17T16:43:54.759Z,1.35
2022-09-17T16:46:21.316Z,1.90
2022-09-17T16:48:50.719Z,1.50
2022-09-17T16:51:17.432Z,1.38
2022-09-17T16:53:44.125Z,1.50
2022-09-17T16:56:13.282Z,1.60
2022-09-17T16:58:40.268Z,1.75
2022-09-17T17:01:11.579Z,1.50
2022-09-17T17:03:38.424Z,2.00
2022-09-17T17:06:05.023Z,1.63
2022-09-17T17:08:32.869Z,1.80
2022-09-17T17:11:00.088Z,2.35
2022-09-17T17:13:27.720Z,1.67
2022-09-17T17:15:55.043Z,1.40
2022-09-17T17:18:21.980Z,2.17
2022-09-17T17:20:48.997Z,1.40
2022-09-17T17:23:16.553Z,1.67
2022-09-17T17:25:43.128Z,1.33
2022-09-17T17:28:09.610Z,1.60
2022-09-17T17:30:36.351Z,1.65
2022-09-17T17:33:04.164Z,1.48
2022-09-17T17:35:30.987Z,1.27
2022-09-17T17:37:57.481Z,1.80
2022-09-17T17:40:24.128Z,1.70
2022-09-17T17:42:54.785Z,1.20
2022-09-17T17:45:21.688Z,1.25
2022-09-17T17:47:48.677Z,1.00
2022-09-17T17:50:16.005Z,1.13
2022-09-17T17:52:47.829Z,0.98
2022-09-17T17:55:16.021Z,1.13
2022-09-17T17:57:42.527Z,1.05
2022-09-17T18:00:11.877Z,0.82
2022-09-17T18:02:38.581Z,0.60
2022-09-17T18:05:05.565Z,1.58
2022-09-17T18:07:32.195Z,1.08
2022-09-17T18:09:58.743Z,1.40
2022-09-17T18:12:27.124Z,1.13
2022-09-17T18:14:53.848Z,1.10
2022-09-17T18:17:20.389Z,0.98
2022-09-17T18:19:46.906Z,0.82
2022-09-17T18:22:14.218Z,0.80
2022-09-17T18:24:40.782Z,1.13
2022-09-17T18:27:07.285Z,0.90
2022-09-17T18:29:33.801Z,1.27
2022-09-17T18:32:00.483Z,0.80
2022-09-17T18:34:27.297Z,1.20
2022-09-17T18:36:53.903Z,0.70
2022-09-17T18:39:56.989Z,1.30
2022-09-17T18:42:08.661Z,0.95
2022-09-17T18:44:35.299Z,0.63
2022-09-17T18:47:01.913Z,0.82
2022-09-17T18:49:28.630Z,0.85
2022-09-17T18:51:55.216Z,0.90
2022-09-17T18:54:21.687Z,1.35
2022-09-17T18:56:48.256Z,0.90
2022-09-17T18:59:14.772Z,1.10
2022-09-17T19:01:41.502Z,0.70
2022-09-17T19:04:08.437Z,0.90
2022-09-17T19:06:35.657Z,0.80
2022-09-17T19:09:04.185Z,0.57
2022-09-17T19:11:30.834Z,0.90
2022-09-17T19:13:57.951Z,0.60
2022-09-17T19:16:24.602Z,0.70
2022-09-17T19:18:51.489Z,0.90
2022-09-17T19:21:21.567Z,0.90
2022-09-17T19:23:50.238Z,0.90
2022-09-17T19:26:19.707Z,0.90
2022-09-17T19:28:46.785Z,0.80
2022-09-17T19:31:15.893Z,0.82
2022-09-17T19:33:43.496Z,0.68
2022-09-17T19:36:16.029Z,0.80
2022-09-17T19:38:43.206Z,0.70
2022-09-17T19:41:12.505Z,0.83
2022-09-17T19:43:39.340Z,0.63
2022-09-17T19:46:15.844Z,1.00
2022-09-17T19:48:50.275Z,0.70
2022-09-17T19:51:18.092Z,0.82
2022-09-17T19:53:45.654Z,0.70
2022-09-17T19:56:14.807Z,0.88
2022-09-17T19:58:42.087Z,0.90
2022-09-17T20:01:09.575Z,0.88
2022-09-17T20:03:39.121Z,0.73
2022-09-17T20:06:08.189Z,1.20
2022-09-17T20:08:39.298Z,1.00
2022-09-17T20:11:10.229Z,0.90
2022-09-17T20:13:37.575Z,0.63
2022-09-17T20:16:05.617Z,1.00
2022-09-17T20:18:32.601Z,0.90
2022-09-17T20:20:59.240Z,0.88
2022-09-17T20:23:32.918Z,0.90
2022-09-17T20:25:59.498Z,0.90
2022-09-17T20:28:26.116Z,0.80
2022-09-17T20:31:11.936Z,0.77
2022-09-17T20:33:38.608Z,0.70
2022-09-17T20:36:08.228Z,0.90
2022-09-17T20:41:21.536Z,0.80
2022-09-17T20:44:09.343Z,0.80
2022-09-17T20:46:35.981Z,0.73
2022-09-17T20:49:02.708Z,0.70
2022-09-17T20:51:30.343Z,0.80
2022-09-17T20:53:57.603Z,0.82
2022-09-17T20:56:34.425Z,0.60
2022-09-17T20:59:13.396Z,0.80
2022-09-17T21:01:41.567Z,0.90
2022-09-17T21:04:08.587Z,0.50
2022-09-17T21:06:41.134Z,1.02
2022-09-17T21:09:15.389Z,0.60
2022-09-17T21:11:43.660Z,0.82
2022-09-17T21:14:11.482Z,0.60
2022-09-17T21:16:39.058Z,0.55
2022-09-17T21:19:07.845Z,0.40
2022-09-17T21:21:34.985Z,0.40
2022-09-17T21:24:06.649Z,0.50
2022-09-17T21:26:34.701Z,0.55
2022-09-17T21:29:01.686Z,0.60
2022-09-17T21:31:33.568Z,0.40
2022-09-17T21:34:09.581Z,0.47
2022-09-17T21:36:38.608Z,0.50
2022-09-17T21:39:09.815Z,0.77
2022-09-17T21:41:40.080Z,1.20
2022-09-17T21:44:09.732Z,0.63
2022-09-17T21:46:37.104Z,0.60
2022-09-17T21:49:06.066Z,0.65
2022-09-17T21:51:36.164Z,0.70
2022-09-17T21:54:08.467Z,0.50
2022-09-17T21:56:35.383Z,0.90
2022-09-17T21:59:04.574Z,0.70
2022-09-17T22:01:40.592Z,0.95
2022-09-17T22:04:09.193Z,0.70
2022-09-17T22:06:39.494Z,0.52
2022-09-17T22:09:07.532Z,0.52
2022-09-17T22:11:36.653Z,0.73
2022-09-17T22:14:14.653Z,0.70
2022-09-17T22:16:45.675Z,0.40
2022-09-17T22:19:14.883Z,0.65
2022-09-17T22:21:51.025Z,0.90
2022-09-17T22:24:18.964Z,0.60
2022-09-17T22:26:50.701Z,0.57
2022-09-17T22:29:21.525Z,0.73
2022-09-17T22:31:48.595Z,0.77
2022-09-17T22:34:18.917Z,1.23
2022-09-17T22:36:46.094Z,0.80
2022-09-17T22:39:12.649Z,0.93
2022-09-17T22:41:45.551Z,0.80
2022-09-17T22:44:20.331Z,1.10
2022-09-17T22:46:49.439Z,1.13
2022-09-17T22:49:16.325Z,1.10
2022-09-17T22:51:44.849Z,1.00
2022-09-17T22:54:13.339Z,1.00
2022-09-17T22:56:40.761Z,0.90
2022-09-17T22:59:07.361Z,1.17
2022-09-17T23:01:36.188Z,0.90
2022-09-17T23:04:04.348Z,0.90
2022-09-17T23:06:34.329Z,0.70
2022-09-17T23:09:01.206Z,0.85
2022-09-17T23:11:31.055Z,1.10
2022-09-17T23:14:02.898Z,1.10
2022-09-17T23:16:34.711Z,0.95
2022-09-17T23:19:01.242Z,0.90
2022-09-17T23:21:27.734Z,1.00
2022-09-17T23:23:54.280Z,0.75
2022-09-17T23:26:22.910Z,1.00
2022-09-17T23:28:50.144Z,0.90
2022-09-17T23:31:24.751Z,0.70
2022-09-17T23:33:52.109Z,0.93
2022-09-17T23:36:24.902Z,0.98
2022-09-17T23:38:51.487Z,0.90
2022-09-17T23:41:21.507Z,1.00
2022-09-17T23:43:50.501Z,1.00
2022-09-17T23:46:20.193Z,1.10
2022-09-17T23:48:47.373Z,1.08
2022-09-17T23:51:14.131Z,1.20
2022-09-17T23:53:40.674Z,1.13
2022-09-17T23:56:13.638Z,0.90
2022-09-17T23:58:40.144Z,0.80
